sensor_id;sensor_type;location;lat;lon;timestamp;P1;durP1;ratioP1;P2;durP2;ratioP2
77838;SDS011;67034;43.226;27.932;2023-04-24T00:00:37;6.70;;;3.83;;
77838;SDS011;67034;43.226;27.932;2023-04-24T00:03:05;6.30;;;3.65;;
77838;SDS011;67034;43.226;27.932;2023-04-24T00:05:32;4.85;;;3.72;;
77838;SDS011;67034;43.226;27.932;2023-04-24T00:07:58;5.28;;;3.88;;
77838;SDS011;67034;43.226;27.932;2023-04-24T00:10:23;8.43;;;3.60;;
77838;SDS011;67034;43.226;27.932;2023-04-24T00:12:49;6.30;;;3.92;;
77838;SDS011;67034;43.226;27.932;2023-04-24T00:15:15;5.95;;;4.70;;
77838;SDS011;67034;43.226;27.932;2023-04-24T00:17:42;8.80;;;4.65;;
77838;SDS011;67034;43.226;27.932;2023-04-24T00:20:08;10.13;;;4.15;;
77838;SDS011;67034;43.226;27.932;2023-04-24T00:22:35;6.75;;;4.10;;
77838;SDS011;67034;43.226;27.932;2023-04-24T00:25:01;6.97;;;4.38;;
77838;SDS011;67034;43.226;27.932;2023-04-24T00:27:27;6.68;;;4.10;;
77838;SDS011;67034;43.226;27.932;2023-04-24T00:29:52;7.55;;;4.80;;
77838;SDS011;67034;43.226;27.932;2023-04-24T00:32:18;11.25;;;4.70;;
77838;SDS011;67034;43.226;27.932;2023-04-24T00:34:45;7.65;;;4.80;;
77838;SDS011;67034;43.226;27.932;2023-04-24T00:37:11;10.10;;;5.28;;
77838;SDS011;67034;43.226;27.932;2023-04-24T00:39:37;7.20;;;4.30;;
77838;SDS011;67034;43.226;27.932;2023-04-24T00:42:02;8.57;;;4.97;;
77838;SDS011;67034;43.226;27.932;2023-04-24T00:44:30;7.28;;;4.70;;
77838;SDS011;67034;43.226;27.932;2023-04-24T00:46:57;8.50;;;4.85;;
77838;SDS011;67034;43.226;27.932;2023-04-24T00:49:24;10.13;;;4.93;;
77838;SDS011;67034;43.226;27.932;2023-04-24T00:51:51;7.20;;;4.68;;
77838;SDS011;67034;43.226;27.932;2023-04-24T00:54:17;6.00;;;4.13;;
77838;SDS011;67034;43.226;27.932;2023-04-24T00:56:43;6.72;;;4.57;;
77838;SDS011;67034;43.226;27.932;2023-04-24T00:59:10;6.93;;;4.82;;
77838;SDS011;67034;43.226;27.932;2023-04-24T01:01:36;6.20;;;4.28;;
77838;SDS011;67034;43.226;27.932;2023-04-24T01:04:07;9.32;;;4.97;;
77838;SDS011;67034;43.226;27.932;2023-04-24T01:06:35;7.72;;;3.55;;
77838;SDS011;67034;43.226;27.932;2023-04-24T01:09:04;6.45;;;4.40;;
77838;SDS011;67034;43.226;27.932;2023-04-24T01:11:33;5.88;;;4.18;;
77838;SDS011;67034;43.226;27.932;2023-04-24T01:13:58;9.95;;;4.65;;
77838;SDS011;67034;43.226;27.932;2023-04-24T01:16:25;7.10;;;4.57;;
77838;SDS011;67034;43.226;27.932;2023-04-24T01:18:51;6.50;;;4.22;;
77838;SDS011;67034;43.226;27.932;2023-04-24T01:21:17;7.00;;;4.20;;
77838;SDS011;67034;43.226;27.932;2023-04-24T01:23:45;7.55;;;4.20;;
77838;SDS011;67034;43.226;27.932;2023-04-24T01:26:11;6.97;;;3.95;;
77838;SDS011;67034;43.226;27.932;2023-04-24T01:28:37;6.95;;;4.13;;
77838;SDS011;67034;43.226;27.932;2023-04-24T01:31:03;7.07;;;4.03;;
77838;SDS011;67034;43.226;27.932;2023-04-24T01:33:29;5.93;;;3.85;;
77838;SDS011;67034;43.226;27.932;2023-04-24T01:35:54;5.68;;;3.67;;
77838;SDS011;67034;43.226;27.932;2023-04-24T01:38:20;6.80;;;3.83;;
77838;SDS011;67034;43.226;27.932;2023-04-24T01:40:48;6.97;;;3.80;;
77838;SDS011;67034;43.226;27.932;2023-04-24T01:43:15;7.05;;;3.95;;
77838;SDS011;67034;43.226;27.932;2023-04-24T01:48:06;7.25;;;4.03;;
77838;SDS011;67034;43.226;27.932;2023-04-24T01:50:32;5.13;;;3.90;;
77838;SDS011;67034;43.226;27.932;2023-04-24T01:52:58;11.25;;;3.72;;
77838;SDS011;67034;43.226;27.932;2023-04-24T01:57:50;4.78;;;3.75;;
77838;SDS011;67034;43.226;27.932;2023-04-24T02:00:20;6.03;;;3.42;;
77838;SDS011;67034;43.226;27.932;2023-04-24T02:02:45;5.85;;;3.90;;
77838;SDS011;67034;43.226;27.932;2023-04-24T02:07:36;5.78;;;3.30;;
77838;SDS011;67034;43.226;27.932;2023-04-24T02:10:02;6.22;;;3.63;;
77838;SDS011;67034;43.226;27.932;2023-04-24T02:12:29;4.22;;;3.00;;
77838;SDS011;67034;43.226;27.932;2023-04-24T02:17:22;6.90;;;3.83;;
77838;SDS011;67034;43.226;27.932;2023-04-24T02:22:13;6.00;;;3.17;;
77838;SDS011;67034;43.226;27.932;2023-04-24T02:27:04;6.57;;;3.90;;
77838;SDS011;67034;43.226;27.932;2023-04-24T02:29:30;6.75;;;3.63;;
77838;SDS011;67034;43.226;27.932;2023-04-24T02:34:23;6.25;;;3.70;;
77838;SDS011;67034;43.226;27.932;2023-04-24T02:36:49;5.30;;;3.33;;
77838;SDS011;67034;43.226;27.932;2023-04-24T02:41:43;5.90;;;3.83;;
77838;SDS011;67034;43.226;27.932;2023-04-24T02:46:35;5.53;;;3.30;;
77838;SDS011;67034;43.226;27.932;2023-04-24T02:51:27;5.47;;;3.45;;
77838;SDS011;67034;43.226;27.932;2023-04-24T02:56:18;6.40;;;3.47;;
77838;SDS011;67034;43.226;27.932;2023-04-24T02:58:44;7.43;;;3.35;;
77838;SDS011;67034;43.226;27.932;2023-04-24T03:03:36;7.93;;;3.40;;
77838;SDS011;67034;43.226;27.932;2023-04-24T03:08:30;5.70;;;3.58;;
77838;SDS011;67034;43.226;27.932;2023-04-24T03:13:22;6.05;;;3.35;;
77838;SDS011;67034;43.226;27.932;2023-04-24T03:18:13;5.47;;;3.40;;
77838;SDS011;67034;43.226;27.932;2023-04-24T03:23:05;7.10;;;3.28;;
77838;SDS011;67034;43.226;27.932;2023-04-24T03:25:31;5.70;;;3.53;;
77838;SDS011;67034;43.226;27.932;2023-04-24T03:30:22;6.57;;;3.53;;
77838;SDS011;67034;43.226;27.932;2023-04-24T03:32:48;6.82;;;4.55;;
77838;SDS011;67034;43.226;27.932;2023-04-24T03:37:39;13.43;;;5.75;;
77838;SDS011;67034;43.226;27.932;2023-04-24T03:40:07;8.32;;;5.05;;
77838;SDS011;67034;43.226;27.932;2023-04-24T03:42:34;10.77;;;5.35;;
77838;SDS011;67034;43.226;27.932;2023-04-24T03:45:00;7.65;;;4.40;;
77838;SDS011;67034;43.226;27.932;2023-04-24T03:47:25;5.82;;;3.95;;
77838;SDS011;67034;43.226;27.932;2023-04-24T03:49:51;9.65;;;4.28;;
77838;SDS011;67034;43.226;27.932;2023-04-24T03:52:17;8.60;;;4.38;;
77838;SDS011;67034;43.226;27.932;2023-04-24T03:54:43;10.38;;;4.47;;
77838;SDS011;67034;43.226;27.932;2023-04-24T03:57:10;6.82;;;4.28;;
77838;SDS011;67034;43.226;27.932;2023-04-24T03:59:35;8.60;;;4.10;;
77838;SDS011;67034;43.226;27.932;2023-04-24T04:02:01;7.40;;;4.30;;
77838;SDS011;67034;43.226;27.932;2023-04-24T04:04:27;4.97;;;3.72;;
77838;SDS011;67034;43.226;27.932;2023-04-24T04:06:52;7.00;;;3.60;;
77838;SDS011;67034;43.226;27.932;2023-04-24T04:09:18;6.15;;;3.97;;
77838;SDS011;67034;43.226;27.932;2023-04-24T04:11:44;7.45;;;4.40;;
77838;SDS011;67034;43.226;27.932;2023-04-24T04:14:11;9.32;;;4.07;;
77838;SDS011;67034;43.226;27.932;2023-04-24T04:16:37;7.78;;;4.28;;
77838;SDS011;67034;43.226;27.932;2023-04-24T04:19:03;6.20;;;3.80;;
77838;SDS011;67034;43.226;27.932;2023-04-24T04:21:30;7.82;;;4.35;;
77838;SDS011;67034;43.226;27.932;2023-04-24T04:23:57;8.13;;;5.13;;
77838;SDS011;67034;43.226;27.932;2023-04-24T04:26:22;6.78;;;4.60;;
77838;SDS011;67034;43.226;27.932;2023-04-24T04:28:50;10.32;;;4.50;;
77838;SDS011;67034;43.226;27.932;2023-04-24T04:31:17;13.88;;;5.10;;
77838;SDS011;67034;43.226;27.932;2023-04-24T04:33:43;12.10;;;4.60;;
77838;SDS011;67034;43.226;27.932;2023-04-24T04:36:09;7.47;;;4.55;;
77838;SDS011;67034;43.226;27.932;2023-04-24T04:38:35;10.18;;;4.55;;
77838;SDS011;67034;43.226;27.932;2023-04-24T04:41:02;11.63;;;4.68;;
77838;SDS011;67034;43.226;27.932;2023-04-24T04:43:28;7.97;;;4.57;;
77838;SDS011;67034;43.226;27.932;2023-04-24T04:45:53;9.48;;;4.88;;
77838;SDS011;67034;43.226;27.932;2023-04-24T04:48:22;12.63;;;5.45;;
77838;SDS011;67034;43.226;27.932;2023-04-24T04:50:48;13.27;;;5.75;;
77838;SDS011;67034;43.226;27.932;2023-04-24T04:53:13;14.65;;;5.03;;
77838;SDS011;67034;43.226;27.932;2023-04-24T04:55:39;15.10;;;6.60;;
77838;SDS011;67034;43.226;27.932;2023-04-24T04:58:05;12.85;;;5.90;;
77838;SDS011;67034;43.226;27.932;2023-04-24T05:00:31;14.65;;;8.32;;
77838;SDS011;67034;43.226;27.932;2023-04-24T05:03:00;12.13;;;8.15;;
77838;SDS011;67034;43.226;27.932;2023-04-24T05:05:28;9.07;;;5.43;;
77838;SDS011;67034;43.226;27.932;2023-04-24T05:07:53;9.05;;;5.60;;
77838;SDS011;67034;43.226;27.932;2023-04-24T05:10:19;15.98;;;8.23;;
77838;SDS011;67034;43.226;27.932;2023-04-24T05:12:45;17.27;;;8.80;;
77838;SDS011;67034;43.226;27.932;2023-04-24T05:15:10;14.55;;;7.40;;
77838;SDS011;67034;43.226;27.932;2023-04-24T05:17:36;10.05;;;5.68;;
77838;SDS011;67034;43.226;27.932;2023-04-24T05:20:02;10.05;;;7.00;;
77838;SDS011;67034;43.226;27.932;2023-04-24T05:22:33;12.50;;;6.00;;
77838;SDS011;67034;43.226;27.932;2023-04-24T05:24:58;11.40;;;5.68;;
77838;SDS011;67034;43.226;27.932;2023-04-24T05:27:24;10.70;;;6.28;;
77838;SDS011;67034;43.226;27.932;2023-04-24T05:29:50;9.55;;;5.03;;
77838;SDS011;67034;43.226;27.932;2023-04-24T05:32:16;10.98;;;5.82;;
77838;SDS011;67034;43.226;27.932;2023-04-24T05:34:41;17.10;;;6.68;;
77838;SDS011;67034;43.226;27.932;2023-04-24T05:37:07;16.23;;;6.57;;
77838;SDS011;67034;43.226;27.932;2023-04-24T05:39:36;16.60;;;5.78;;
77838;SDS011;67034;43.226;27.932;2023-04-24T05:42:03;9.60;;;4.57;;
77838;SDS011;67034;43.226;27.932;2023-04-24T05:44:29;18.60;;;5.70;;
77838;SDS011;67034;43.226;27.932;2023-04-24T05:46:55;10.15;;;5.32;;
77838;SDS011;67034;43.226;27.932;2023-04-24T05:49:21;13.55;;;6.60;;
77838;SDS011;67034;43.226;27.932;2023-04-24T05:51:47;11.55;;;4.82;;
77838;SDS011;67034;43.226;27.932;2023-04-24T05:54:13;9.55;;;5.00;;
77838;SDS011;67034;43.226;27.932;2023-04-24T05:56:40;17.15;;;6.32;;
77838;SDS011;67034;43.226;27.932;2023-04-24T05:59:06;15.45;;;6.65;;
77838;SDS011;67034;43.226;27.932;2023-04-24T06:01:32;12.00;;;5.78;;
77838;SDS011;67034;43.226;27.932;2023-04-24T06:03:58;9.75;;;4.35;;
77838;SDS011;67034;43.226;27.932;2023-04-24T06:06:24;16.75;;;5.85;;
77838;SDS011;67034;43.226;27.932;2023-04-24T06:08:50;27.90;;;6.07;;
77838;SDS011;67034;43.226;27.932;2023-04-24T06:11:16;14.88;;;5.50;;
77838;SDS011;67034;43.226;27.932;2023-04-24T06:13:43;14.18;;;7.43;;
77838;SDS011;67034;43.226;27.932;2023-04-24T06:16:09;9.70;;;5.20;;
77838;SDS011;67034;43.226;27.932;2023-04-24T06:18:35;10.55;;;4.60;;
77838;SDS011;67034;43.226;27.932;2023-04-24T06:21:00;11.15;;;6.30;;
77838;SDS011;67034;43.226;27.932;2023-04-24T06:23:26;9.98;;;5.20;;
77838;SDS011;67034;43.226;27.932;2023-04-24T06:25:52;14.85;;;6.38;;
77838;SDS011;67034;43.226;27.932;2023-04-24T06:28:18;12.52;;;4.97;;
77838;SDS011;67034;43.226;27.932;2023-04-24T06:30:45;11.15;;;5.30;;
77838;SDS011;67034;43.226;27.932;2023-04-24T06:33:11;6.28;;;4.00;;
77838;SDS011;67034;43.226;27.932;2023-04-24T06:35:39;12.38;;;4.70;;
77838;SDS011;67034;43.226;27.932;2023-04-24T06:38:05;12.25;;;5.47;;
77838;SDS011;67034;43.226;27.932;2023-04-24T06:40:31;13.35;;;6.10;;
77838;SDS011;67034;43.226;27.932;2023-04-24T06:42:57;10.35;;;4.82;;
77838;SDS011;67034;43.226;27.932;2023-04-24T06:45:25;15.20;;;5.75;;
77838;SDS011;67034;43.226;27.932;2023-04-24T06:47:52;11.63;;;5.25;;
77838;SDS011;67034;43.226;27.932;2023-04-24T06:50:18;13.82;;;6.63;;
77838;SDS011;67034;43.226;27.932;2023-04-24T06:52:44;13.10;;;6.81;;
77838;SDS011;67034;43.226;27.932;2023-04-24T06:55:10;14.35;;;5.95;;
77838;SDS011;67034;43.226;27.932;2023-04-24T06:57:36;19.63;;;7.85;;
77838;SDS011;67034;43.226;27.932;2023-04-24T07:00:02;19.90;;;8.90;;
77838;SDS011;67034;43.226;27.932;2023-04-24T07:02:30;39.95;;;8.18;;
77838;SDS011;67034;43.226;27.932;2023-04-24T07:04:57;12.93;;;6.15;;
77838;SDS011;67034;43.226;27.932;2023-04-24T07:07:22;14.13;;;6.10;;
77838;SDS011;67034;43.226;27.932;2023-04-24T07:09:49;10.38;;;5.93;;
77838;SDS011;67034;43.226;27.932;2023-04-24T07:12:15;15.48;;;5.95;;
77838;SDS011;67034;43.226;27.932;2023-04-24T07:14:42;23.52;;;6.68;;
77838;SDS011;67034;43.226;27.932;2023-04-24T07:17:08;20.63;;;6.13;;
77838;SDS011;67034;43.226;27.932;2023-04-24T07:19:33;17.90;;;7.30;;
77838;SDS011;67034;43.226;27.932;2023-04-24T07:22:03;13.98;;;6.00;;
77838;SDS011;67034;43.226;27.932;2023-04-24T07:24:29;12.38;;;5.95;;
77838;SDS011;67034;43.226;27.932;2023-04-24T07:26:57;11.95;;;5.28;;
77838;SDS011;67034;43.226;27.932;2023-04-24T07:29:23;8.65;;;4.90;;
77838;SDS011;67034;43.226;27.932;2023-04-24T07:31:48;14.90;;;6.70;;
77838;SDS011;67034;43.226;27.932;2023-04-24T07:34:14;13.02;;;5.90;;
77838;SDS011;67034;43.226;27.932;2023-04-24T07:36:40;12.68;;;6.85;;
77838;SDS011;67034;43.226;27.932;2023-04-24T07:39:07;24.23;;;7.22;;
77838;SDS011;67034;43.226;27.932;2023-04-24T07:41:34;11.80;;;5.10;;
77838;SDS011;67034;43.226;27.932;2023-04-24T07:44:00;9.25;;;4.93;;
77838;SDS011;67034;43.226;27.932;2023-04-24T07:46:25;10.60;;;5.32;;
77838;SDS011;67034;43.226;27.932;2023-04-24T07:48:54;14.80;;;5.78;;
77838;SDS011;67034;43.226;27.932;2023-04-24T07:51:20;16.27;;;5.47;;
77838;SDS011;67034;43.226;27.932;2023-04-24T07:53:46;13.33;;;6.27;;
77838;SDS011;67034;43.226;27.932;2023-04-24T07:56:14;14.75;;;6.68;;
77838;SDS011;67034;43.226;27.932;2023-04-24T07:58:39;10.60;;;5.57;;
77838;SDS011;67034;43.226;27.932;2023-04-24T08:01:05;42.67;;;8.82;;
77838;SDS011;67034;43.226;27.932;2023-04-24T08:03:31;12.63;;;6.20;;
77838;SDS011;67034;43.226;27.932;2023-04-24T08:05:57;14.90;;;8.80;;
77838;SDS011;67034;43.226;27.932;2023-04-24T08:08:23;13.23;;;5.70;;
77838;SDS011;67034;43.226;27.932;2023-04-24T08:10:48;20.80;;;6.60;;
77838;SDS011;67034;43.226;27.932;2023-04-24T08:13:16;14.38;;;6.50;;
77838;SDS011;67034;43.226;27.932;2023-04-24T08:15:41;8.38;;;5.25;;
77838;SDS011;67034;43.226;27.932;2023-04-24T08:18:07;10.73;;;5.60;;
77838;SDS011;67034;43.226;27.932;2023-04-24T08:20:33;29.30;;;7.63;;
77838;SDS011;67034;43.226;27.932;2023-04-24T08:22:59;14.27;;;6.60;;
77838;SDS011;67034;43.226;27.932;2023-04-24T08:25:24;11.45;;;4.97;;
77838;SDS011;67034;43.226;27.932;2023-04-24T08:27:50;14.68;;;5.80;;
77838;SDS011;67034;43.226;27.932;2023-04-24T08:30:18;11.63;;;5.07;;
77838;SDS011;67034;43.226;27.932;2023-04-24T08:32:44;17.80;;;6.53;;
77838;SDS011;67034;43.226;27.932;2023-04-24T08:35:09;13.30;;;5.90;;
77838;SDS011;67034;43.226;27.932;2023-04-24T08:37:35;17.02;;;6.82;;
77838;SDS011;67034;43.226;27.932;2023-04-24T08:40:06;14.92;;;4.74;;
77838;SDS011;67034;43.226;27.932;2023-04-24T08:42:37;13.52;;;6.15;;
77838;SDS011;67034;43.226;27.932;2023-04-24T08:45:03;14.27;;;6.15;;
77838;SDS011;67034;43.226;27.932;2023-04-24T08:47:32;22.98;;;6.88;;
77838;SDS011;67034;43.226;27.932;2023-04-24T08:49:58;10.23;;;5.68;;
77838;SDS011;67034;43.226;27.932;2023-04-24T08:52:27;11.60;;;5.50;;
77838;SDS011;67034;43.226;27.932;2023-04-24T08:54:53;10.63;;;5.70;;
77838;SDS011;67034;43.226;27.932;2023-04-24T08:57:20;12.32;;;5.95;;
77838;SDS011;67034;43.226;27.932;2023-04-24T08:59:46;11.88;;;5.50;;
77838;SDS011;67034;43.226;27.932;2023-04-24T09:02:12;9.65;;;5.63;;
77838;SDS011;67034;43.226;27.932;2023-04-24T09:04:41;11.02;;;6.10;;
77838;SDS011;67034;43.226;27.932;2023-04-24T09:07:09;11.57;;;4.88;;
77838;SDS011;67034;43.226;27.932;2023-04-24T09:09:37;22.88;;;5.47;;
77838;SDS011;67034;43.226;27.932;2023-04-24T09:12:04;19.67;;;5.90;;
77838;SDS011;67034;43.226;27.932;2023-04-24T09:14:30;14.43;;;6.70;;
77838;SDS011;67034;43.226;27.932;2023-04-24T09:16:57;15.00;;;7.38;;
77838;SDS011;67034;43.226;27.932;2023-04-24T09:19:22;11.52;;;5.38;;
77838;SDS011;67034;43.226;27.932;2023-04-24T09:21:50;10.85;;;5.22;;
77838;SDS011;67034;43.226;27.932;2023-04-24T09:24:19;13.27;;;5.80;;
77838;SDS011;67034;43.226;27.932;2023-04-24T09:26:48;13.82;;;5.50;;
77838;SDS011;67034;43.226;27.932;2023-04-24T09:29:14;13.73;;;5.43;;
77838;SDS011;67034;43.226;27.932;2023-04-24T09:31:41;19.80;;;6.35;;
77838;SDS011;67034;43.226;27.932;2023-04-24T09:34:07;19.75;;;6.82;;
77838;SDS011;67034;43.226;27.932;2023-04-24T09:36:33;10.98;;;5.22;;
77838;SDS011;67034;43.226;27.932;2023-04-24T09:39:05;10.70;;;5.20;;
77838;SDS011;67034;43.226;27.932;2023-04-24T09:41:43;15.57;;;5.75;;
77838;SDS011;67034;43.226;27.932;2023-04-24T09:44:11;16.02;;;5.53;;
77838;SDS011;67034;43.226;27.932;2023-04-24T09:46:38;9.52;;;4.40;;
77838;SDS011;67034;43.226;27.932;2023-04-24T09:49:07;19.30;;;6.65;;
77838;SDS011;67034;43.226;27.932;2023-04-24T09:51:35;13.98;;;5.75;;
77838;SDS011;67034;43.226;27.932;2023-04-24T09:54:02;14.90;;;6.15;;
77838;SDS011;67034;43.226;27.932;2023-04-24T09:56:29;9.98;;;4.45;;
77838;SDS011;67034;43.226;27.932;2023-04-24T09:59:03;12.10;;;4.82;;
77838;SDS011;67034;43.226;27.932;2023-04-24T10:01:30;12.38;;;4.50;;
77838;SDS011;67034;43.226;27.932;2023-04-24T10:03:56;10.50;;;4.57;;
77838;SDS011;67034;43.226;27.932;2023-04-24T10:06:21;11.25;;;4.30;;
77838;SDS011;67034;43.226;27.932;2023-04-24T10:08:47;12.13;;;4.60;;
77838;SDS011;67034;43.226;27.932;2023-04-24T10:11:16;10.13;;;4.70;;
77838;SDS011;67034;43.226;27.932;2023-04-24T10:13:43;17.73;;;6.13;;
77838;SDS011;67034;43.226;27.932;2023-04-24T10:16:09;16.00;;;5.85;;
77838;SDS011;67034;43.226;27.932;2023-04-24T10:18:35;10.82;;;5.43;;
77838;SDS011;67034;43.226;27.932;2023-04-24T10:21:01;15.88;;;5.22;;
77838;SDS011;67034;43.226;27.932;2023-04-24T10:23:27;12.60;;;5.67;;
77838;SDS011;67034;43.226;27.932;2023-04-24T10:25:55;10.68;;;4.97;;
77838;SDS011;67034;43.226;27.932;2023-04-24T10:28:21;12.90;;;5.55;;
77838;SDS011;67034;43.226;27.932;2023-04-24T10:30:50;12.95;;;6.53;;
77838;SDS011;67034;43.226;27.932;2023-04-24T10:33:19;14.90;;;6.97;;
77838;SDS011;67034;43.226;27.932;2023-04-24T10:35:47;10.07;;;4.90;;
77838;SDS011;67034;43.226;27.932;2023-04-24T10:38:17;13.75;;;5.65;;
77838;SDS011;67034;43.226;27.932;2023-04-24T10:40:49;12.20;;;5.65;;
77838;SDS011;67034;43.226;27.932;2023-04-24T10:43:16;15.20;;;5.97;;
77838;SDS011;67034;43.226;27.932;2023-04-24T10:45:59;11.40;;;4.78;;
77838;SDS011;67034;43.226;27.932;2023-04-24T10:48:28;13.70;;;6.15;;
77838;SDS011;67034;43.226;27.932;2023-04-24T10:50:54;17.10;;;5.82;;
77838;SDS011;67034;43.226;27.932;2023-04-24T10:53:20;10.85;;;4.68;;
77838;SDS011;67034;43.226;27.932;2023-04-24T10:55:49;15.00;;;5.97;;
77838;SDS011;67034;43.226;27.932;2023-04-24T10:58:16;12.68;;;4.90;;
77838;SDS011;67034;43.226;27.932;2023-04-24T11:00:55;12.55;;;4.85;;
77838;SDS011;67034;43.226;27.932;2023-04-24T11:03:24;11.82;;;5.80;;
77838;SDS011;67034;43.226;27.932;2023-04-24T11:05:52;7.72;;;4.75;;
77838;SDS011;67034;43.226;27.932;2023-04-24T11:08:24;9.60;;;5.97;;
77838;SDS011;67034;43.226;27.932;2023-04-24T11:10:59;16.13;;;6.35;;
77838;SDS011;67034;43.226;27.932;2023-04-24T11:13:26;11.05;;;4.72;;
77838;SDS011;67034;43.226;27.932;2023-04-24T11:18:42;15.25;;;5.60;;
77838;SDS011;67034;43.226;27.932;2023-04-24T11:21:16;7.97;;;4.78;;
77838;SDS011;67034;43.226;27.932;2023-04-24T11:23:42;8.63;;;5.45;;
77838;SDS011;67034;43.226;27.932;2023-04-24T11:26:09;9.82;;;5.28;;
77838;SDS011;67034;43.226;27.932;2023-04-24T11:28:37;9.95;;;4.25;;
77838;SDS011;67034;43.226;27.932;2023-04-24T11:34:07;10.23;;;4.78;;
77838;SDS011;67034;43.226;27.932;2023-04-24T11:36:33;9.98;;;4.68;;
77838;SDS011;67034;43.226;27.932;2023-04-24T11:39:00;7.88;;;5.05;;
77838;SDS011;67034;43.226;27.932;2023-04-24T11:41:26;15.93;;;5.93;;
77838;SDS011;67034;43.226;27.932;2023-04-24T11:43:53;12.55;;;5.45;;
77838;SDS011;67034;43.226;27.932;2023-04-24T11:46:20;12.32;;;4.90;;
77838;SDS011;67034;43.226;27.932;2023-04-24T11:48:46;7.78;;;5.05;;
77838;SDS011;67034;43.226;27.932;2023-04-24T11:51:13;10.18;;;4.65;;
77838;SDS011;67034;43.226;27.932;2023-04-24T11:53:39;11.75;;;4.57;;
77838;SDS011;67034;43.226;27.932;2023-04-24T11:56:05;10.25;;;5.53;;
77838;SDS011;67034;43.226;27.932;2023-04-24T11:58:34;22.05;;;5.97;;
77838;SDS011;67034;43.226;27.932;2023-04-24T12:01:00;12.10;;;4.68;;
77838;SDS011;67034;43.226;27.932;2023-04-24T12:03:26;11.38;;;4.68;;
77838;SDS011;67034;43.226;27.932;2023-04-24T12:05:52;11.90;;;5.13;;
77838;SDS011;67034;43.226;27.932;2023-04-24T12:08:28;11.10;;;4.80;;
77838;SDS011;67034;43.226;27.932;2023-04-24T12:11:00;14.36;;;5.24;;
77838;SDS011;67034;43.226;27.932;2023-04-24T12:13:26;25.92;;;6.45;;
77838;SDS011;67034;43.226;27.932;2023-04-24T12:15:51;8.90;;;4.35;;
77838;SDS011;67034;43.226;27.932;2023-04-24T12:18:17;16.33;;;6.25;;
77838;SDS011;67034;43.226;27.932;2023-04-24T12:20:43;12.45;;;5.05;;
77838;SDS011;67034;43.226;27.932;2023-04-24T12:23:09;21.58;;;7.28;;
77838;SDS011;67034;43.226;27.932;2023-04-24T12:25:38;7.85;;;4.80;;
77838;SDS011;67034;43.226;27.932;2023-04-24T12:28:11;10.07;;;5.85;;
77838;SDS011;67034;43.226;27.932;2023-04-24T12:30:39;23.45;;;7.60;;
77838;SDS011;67034;43.226;27.932;2023-04-24T12:33:06;12.40;;;5.45;;
77838;SDS011;67034;43.226;27.932;2023-04-24T12:35:32;14.25;;;5.22;;
77838;SDS011;67034;43.226;27.932;2023-04-24T12:38:05;15.57;;;4.82;;
77838;SDS011;67034;43.226;27.932;2023-04-24T12:40:33;13.57;;;4.70;;
77838;SDS011;67034;43.226;27.932;2023-04-24T12:43:00;8.70;;;4.38;;
77838;SDS011;67034;43.226;27.932;2023-04-24T12:45:26;15.52;;;5.40;;
77838;SDS011;67034;43.226;27.932;2023-04-24T12:47:53;7.93;;;4.95;;
77838;SDS011;67034;43.226;27.932;2023-04-24T12:50:19;14.18;;;5.47;;
77838;SDS011;67034;43.226;27.932;2023-04-24T12:52:45;10.27;;;6.03;;
77838;SDS011;67034;43.226;27.932;2023-04-24T12:55:10;9.95;;;5.03;;
77838;SDS011;67034;43.226;27.932;2023-04-24T12:57:37;16.90;;;5.85;;
77838;SDS011;67034;43.226;27.932;2023-04-24T13:00:06;11.87;;;5.33;;
77838;SDS011;67034;43.226;27.932;2023-04-24T13:02:33;9.82;;;5.00;;
77838;SDS011;67034;43.226;27.932;2023-04-24T13:04:59;12.50;;;5.38;;
77838;SDS011;67034;43.226;27.932;2023-04-24T13:07:26;17.80;;;6.60;;
77838;SDS011;67034;43.226;27.932;2023-04-24T13:09:52;12.50;;;5.88;;
77838;SDS011;67034;43.226;27.932;2023-04-24T13:12:20;10.60;;;5.75;;
77838;SDS011;67034;43.226;27.932;2023-04-24T13:14:46;10.18;;;5.88;;
77838;SDS011;67034;43.226;27.932;2023-04-24T13:17:13;10.02;;;5.35;;
77838;SDS011;67034;43.226;27.932;2023-04-24T13:19:39;13.82;;;6.28;;
77838;SDS011;67034;43.226;27.932;2023-04-24T13:22:08;11.57;;;6.45;;
77838;SDS011;67034;43.226;27.932;2023-04-24T13:24:35;9.55;;;4.80;;
77838;SDS011;67034;43.226;27.932;2023-04-24T13:27:01;12.75;;;5.85;;
77838;SDS011;67034;43.226;27.932;2023-04-24T13:29:27;12.52;;;5.72;;
77838;SDS011;67034;43.226;27.932;2023-04-24T13:31:53;9.70;;;5.53;;
77838;SDS011;67034;43.226;27.932;2023-04-24T13:34:24;14.20;;;5.85;;
77838;SDS011;67034;43.226;27.932;2023-04-24T13:36:50;12.43;;;6.38;;
77838;SDS011;67034;43.226;27.932;2023-04-24T13:39:16;9.60;;;4.82;;
77838;SDS011;67034;43.226;27.932;2023-04-24T13:41:42;6.95;;;4.07;;
77838;SDS011;67034;43.226;27.932;2023-04-24T13:44:08;14.75;;;5.57;;
77838;SDS011;67034;43.226;27.932;2023-04-24T13:46:34;8.90;;;5.70;;
77838;SDS011;67034;43.226;27.932;2023-04-24T13:49:02;10.93;;;4.72;;
77838;SDS011;67034;43.226;27.932;2023-04-24T13:51:30;9.73;;;5.93;;
77838;SDS011;67034;43.226;27.932;2023-04-24T13:53:55;12.38;;;5.72;;
77838;SDS011;67034;43.226;27.932;2023-04-24T13:56:22;11.90;;;5.20;;
77838;SDS011;67034;43.226;27.932;2023-04-24T13:58:48;11.85;;;5.82;;
77838;SDS011;67034;43.226;27.932;2023-04-24T14:01:14;12.43;;;5.25;;
77838;SDS011;67034;43.226;27.932;2023-04-24T14:03:40;9.27;;;4.50;;
77838;SDS011;67034;43.226;27.932;2023-04-24T14:06:06;11.02;;;5.32;;
77838;SDS011;67034;43.226;27.932;2023-04-24T14:08:33;18.02;;;5.88;;
77838;SDS011;67034;43.226;27.932;2023-04-24T14:10:59;7.95;;;4.20;;
77838;SDS011;67034;43.226;27.932;2023-04-24T14:13:25;14.60;;;5.50;;
77838;SDS011;67034;43.226;27.932;2023-04-24T14:15:51;17.65;;;5.30;;
77838;SDS011;67034;43.226;27.932;2023-04-24T14:18:17;10.77;;;4.90;;
77838;SDS011;67034;43.226;27.932;2023-04-24T14:20:43;10.23;;;5.15;;
77838;SDS011;67034;43.226;27.932;2023-04-24T14:23:09;9.77;;;5.00;;
77838;SDS011;67034;43.226;27.932;2023-04-24T14:25:36;9.07;;;5.03;;
77838;SDS011;67034;43.226;27.932;2023-04-24T14:28:02;10.05;;;4.90;;
77838;SDS011;67034;43.226;27.932;2023-04-24T14:30:28;9.20;;;4.88;;
77838;SDS011;67034;43.226;27.932;2023-04-24T14:32:54;10.35;;;4.72;;
77838;SDS011;67034;43.226;27.932;2023-04-24T14:35:20;13.85;;;6.10;;
77838;SDS011;67034;43.226;27.932;2023-04-24T14:37:45;9.57;;;6.20;;
77838;SDS011;67034;43.226;27.932;2023-04-24T14:40:13;12.48;;;5.78;;
77838;SDS011;67034;43.226;27.932;2023-04-24T14:42:40;14.90;;;8.75;;
77838;SDS011;67034;43.226;27.932;2023-04-24T14:45:06;12.52;;;7.43;;
77838;SDS011;67034;43.226;27.932;2023-04-24T14:47:33;18.52;;;7.68;;
77838;SDS011;67034;43.226;27.932;2023-04-24T14:49:59;8.43;;;5.03;;
77838;SDS011;67034;43.226;27.932;2023-04-24T14:52:24;11.38;;;4.65;;
77838;SDS011;67034;43.226;27.932;2023-04-24T14:54:50;16.15;;;5.40;;
77838;SDS011;67034;43.226;27.932;2023-04-24T14:57:16;12.23;;;6.05;;
77838;SDS011;67034;43.226;27.932;2023-04-24T14:59:43;12.40;;;5.38;;
77838;SDS011;67034;43.226;27.932;2023-04-24T15:02:11;12.07;;;5.85;;
77838;SDS011;67034;43.226;27.932;2023-04-24T15:04:37;9.45;;;4.35;;
77838;SDS011;67034;43.226;27.932;2023-04-24T15:07:03;16.58;;;5.57;;
77838;SDS011;67034;43.226;27.932;2023-04-24T15:09:29;11.10;;;4.65;;
77838;SDS011;67034;43.226;27.932;2023-04-24T15:11:57;18.25;;;7.07;;